sensor_id;sensor_type;location;lat;lon;timestamp;temperature;humidity
70708;SHT30;58277;47.316;18.908;2023-04-12T00:00:58;6.69;82.95
70708;SHT30;58277;47.316;18.908;2023-04-12T00:03:21;6.67;82.87
70708;SHT30;58277;47.316;18.908;2023-04-12T00:05:46;6.70;82.73
70708;SHT30;58277;47.316;18.908;2023-04-12T00:08:09;6.74;82.66
70708;SHT30;58277;47.316;18.908;2023-04-12T00:10:40;6.83;82.10
70708;SHT30;58277;47.316;18.908;2023-04-12T00:13:03;6.94;81.59
70708;SHT30;58277;47.316;18.908;2023-04-12T00:15:26;7.01;81.02
70708;SHT30;58277;47.316;18.908;2023-04-12T00:17:49;7.08;80.59
70708;SHT30;58277;47.316;18.908;2023-04-12T00:20:11;7.08;80.83
70708;SHT30;58277;47.316;18.908;2023-04-12T00:22:34;7.04;80.72
70708;SHT30;58277;47.316;18.908;2023-04-12T00:24:58;6.95;80.90
70708;SHT30;58277;47.316;18.908;2023-04-12T00:27:20;6.84;81.39
70708;SHT30;58277;47.316;18.908;2023-04-12T00:29:43;6.64;82.10
70708;SHT30;58277;47.316;18.908;2023-04-12T00:32:06;6.56;82.23
70708;SHT30;58277;47.316;18.908;2023-04-12T00:34:29;6.60;82.24
70708;SHT30;58277;47.316;18.908;2023-04-12T00:36:52;6.61;81.93
70708;SHT30;58277;47.316;18.908;2023-04-12T00:39:14;6.51;82.44
70708;SHT30;58277;47.316;18.908;2023-04-12T00:41:37;6.43;82.76
70708;SHT30;58277;47.316;18.908;2023-04-12T00:44:00;6.39;82.87
70708;SHT30;58277;47.316;18.908;2023-04-12T00:46:23;6.36;83.16
70708;SHT30;58277;47.316;18.908;2023-04-12T00:48:46;6.29;83.11
70708;SHT30;58277;47.316;18.908;2023-04-12T00:51:10;6.22;83.31
70708;SHT30;58277;47.316;18.908;2023-04-12T00:53:33;6.28;82.87
70708;SHT30;58277;47.316;18.908;2023-04-12T00:55:59;6.21;83.03
70708;SHT30;58277;47.316;18.908;2023-04-12T00:58:23;6.26;82.83
70708;SHT30;58277;47.316;18.908;2023-04-12T01:00:46;6.30;82.96
70708;SHT30;58277;47.316;18.908;2023-04-12T01:03:20;6.26;82.92
70708;SHT30;58277;47.316;18.908;2023-04-12T01:05:51;6.21;82.91
70708;SHT30;58277;47.316;18.908;2023-04-12T01:08:23;6.11;83.31
70708;SHT30;58277;47.316;18.908;2023-04-12T01:11:13;6.13;83.21
70708;SHT30;58277;47.316;18.908;2023-04-12T01:13:50;6.05;83.38
70708;SHT30;58277;47.316;18.908;2023-04-12T01:16:29;6.05;83.44
70708;SHT30;58277;47.316;18.908;2023-04-12T01:18:56;6.05;83.16
70708;SHT30;58277;47.316;18.908;2023-04-12T01:26:54;5.97;83.47
70708;SHT30;58277;47.316;18.908;2023-04-12T01:29:21;5.91;83.63
70708;SHT30;58277;47.316;18.908;2023-04-12T01:31:58;5.90;83.64
70708;SHT30;58277;47.316;18.908;2023-04-12T01:34:24;5.88;83.69
70708;SHT30;58277;47.316;18.908;2023-04-12T01:36:49;5.87;83.58
70708;SHT30;58277;47.316;18.908;2023-04-12T01:39:13;5.87;83.81
70708;SHT30;58277;47.316;18.908;2023-04-12T01:41:40;5.81;83.76
70708;SHT30;58277;47.316;18.908;2023-04-12T01:44:06;5.87;83.53
70708;SHT30;58277;47.316;18.908;2023-04-12T01:46:29;5.87;83.32
70708;SHT30;58277;47.316;18.908;2023-04-12T01:48:55;5.92;83.29
70708;SHT30;58277;47.316;18.908;2023-04-12T01:53:59;5.98;82.80
70708;SHT30;58277;47.316;18.908;2023-04-12T01:56:25;6.04;82.61
70708;SHT30;58277;47.316;18.908;2023-04-12T01:58:52;6.05;82.55
70708;SHT30;58277;47.316;18.908;2023-04-12T02:01:16;5.98;82.62
70708;SHT30;58277;47.316;18.908;2023-04-12T02:03:41;5.97;83.07
70708;SHT30;58277;47.316;18.908;2023-04-12T02:06:04;5.98;82.79
70708;SHT30;58277;47.316;18.908;2023-04-12T02:08:28;5.99;82.68
70708;SHT30;58277;47.316;18.908;2023-04-12T02:10:51;5.91;82.96
70708;SHT30;58277;47.316;18.908;2023-04-12T02:13:14;5.88;82.93
70708;SHT30;58277;47.316;18.908;2023-04-12T02:15:39;5.91;82.87
70708;SHT30;58277;47.316;18.908;2023-04-12T02:18:02;5.90;82.93
70708;SHT30;58277;47.316;18.908;2023-04-12T02:20:25;5.88;82.98
70708;SHT30;58277;47.316;18.908;2023-04-12T02:22:48;5.84;82.95
70708;SHT30;58277;47.316;18.908;2023-04-12T02:25:14;5.79;83.19
70708;SHT30;58277;47.316;18.908;2023-04-12T02:27:40;5.78;83.18
70708;SHT30;58277;47.316;18.908;2023-04-12T02:30:03;5.73;83.12
70708;SHT30;58277;47.316;18.908;2023-04-12T02:32:29;5.68;83.44
70708;SHT30;58277;47.316;18.908;2023-04-12T02:34:52;5.68;83.34
70708;SHT30;58277;47.316;18.908;2023-04-12T02:37:15;5.64;83.30
70708;SHT30;58277;47.316;18.908;2023-04-12T02:39:38;5.67;83.21
70708;SHT30;58277;47.316;18.908;2023-04-12T02:42:03;5.67;83.11
70708;SHT30;58277;47.316;18.908;2023-04-12T02:44:28;5.68;83.00
70708;SHT30;58277;47.316;18.908;2023-04-12T02:47:07;5.60;83.04
70708;SHT30;58277;47.316;18.908;2023-04-12T02:49:31;5.54;83.23
70708;SHT30;58277;47.316;18.908;2023-04-12T02:51:54;5.51;83.33
70708;SHT30;58277;47.316;18.908;2023-04-12T02:54:23;5.51;83.31
70708;SHT30;58277;47.316;18.908;2023-04-12T02:56:49;5.54;83.22
70708;SHT30;58277;47.316;18.908;2023-04-12T02:59:29;5.46;83.45
70708;SHT30;58277;47.316;18.908;2023-04-12T03:02:21;5.36;83.76
70708;SHT30;58277;47.316;18.908;2023-04-12T03:04:47;5.26;84.09
70708;SHT30;58277;47.316;18.908;2023-04-12T03:07:17;5.23;84.30
70708;SHT30;58277;47.316;18.908;2023-04-12T03:09:49;5.26;84.27
70708;SHT30;58277;47.316;18.908;2023-04-12T03:12:14;5.33;83.99
70708;SHT30;58277;47.316;18.908;2023-04-12T03:14:47;5.25;84.19
70708;SHT30;58277;47.316;18.908;2023-04-12T03:17:13;5.27;84.25
70708;SHT30;58277;47.316;18.908;2023-04-12T03:19:36;5.23;84.21
70708;SHT30;58277;47.316;18.908;2023-04-12T03:21:59;5.23;84.12
70708;SHT30;58277;47.316;18.908;2023-04-12T03:24:23;5.23;84.05
70708;SHT30;58277;47.316;18.908;2023-04-12T03:26:46;5.25;83.97
70708;SHT30;58277;47.316;18.908;2023-04-12T03:29:15;5.25;83.88
70708;SHT30;58277;47.316;18.908;2023-04-12T03:31:38;5.16;83.91
70708;SHT30;58277;47.316;18.908;2023-04-12T03:34:03;5.13;84.23
70708;SHT30;58277;47.316;18.908;2023-04-12T03:36:26;5.04;84.41
70708;SHT30;58277;47.316;18.908;2023-04-12T03:39:00;4.96;84.96
70708;SHT30;58277;47.316;18.908;2023-04-12T03:41:27;4.98;84.67
70708;SHT30;58277;47.316;18.908;2023-04-12T03:43:49;4.95;84.66
70708;SHT30;58277;47.316;18.908;2023-04-12T03:46:13;4.93;84.85
70708;SHT30;58277;47.316;18.908;2023-04-12T03:48:38;4.88;84.83
70708;SHT30;58277;47.316;18.908;2023-04-12T03:51:00;4.87;85.06
70708;SHT30;58277;47.316;18.908;2023-04-12T03:53:32;4.79;85.03
70708;SHT30;58277;47.316;18.908;2023-04-12T03:55:55;4.78;85.07
70708;SHT30;58277;47.316;18.908;2023-04-12T03:58:24;4.78;85.11
70708;SHT30;58277;47.316;18.908;2023-04-12T04:00:47;4.75;85.22
70708;SHT30;58277;47.316;18.908;2023-04-12T04:03:10;4.81;85.11
70708;SHT30;58277;47.316;18.908;2023-04-12T04:05:54;4.81;84.92
70708;SHT30;58277;47.316;18.908;2023-04-12T04:08:18;4.84;84.90
70708;SHT30;58277;47.316;18.908;2023-04-12T04:10:48;4.96;84.11
70708;SHT30;58277;47.316;18.908;2023-04-12T04:13:11;4.98;84.02
70708;SHT30;58277;47.316;18.908;2023-04-12T04:15:34;4.96;84.03
70708;SHT30;58277;47.316;18.908;2023-04-12T04:17:57;4.98;83.92
70708;SHT30;58277;47.316;18.908;2023-04-12T04:20:23;5.12;83.68
70708;SHT30;58277;47.316;18.908;2023-04-12T04:22:48;5.06;83.90
70708;SHT30;58277;47.316;18.908;2023-04-12T04:25:11;5.06;83.41
70708;SHT30;58277;47.316;18.908;2023-04-12T04:27:37;5.06;83.65
70708;SHT30;58277;47.316;18.908;2023-04-12T04:30:02;5.09;83.50
70708;SHT30;58277;47.316;18.908;2023-04-12T04:32:27;5.22;83.06
70708;SHT30;58277;47.316;18.908;2023-04-12T04:34:51;5.29;82.34
70708;SHT30;58277;47.316;18.908;2023-04-12T04:37:14;5.54;81.81
70708;SHT30;58277;47.316;18.908;2023-04-12T04:39:39;5.64;81.37
70708;SHT30;58277;47.316;18.908;2023-04-12T04:42:03;5.84;81.00
70708;SHT30;58277;47.316;18.908;2023-04-12T04:44:33;5.99;80.36
70708;SHT30;58277;47.316;18.908;2023-04-12T04:46:59;6.02;80.02
70708;SHT30;58277;47.316;18.908;2023-04-12T04:49:22;6.23;79.49
70708;SHT30;58277;47.316;18.908;2023-04-12T04:51:45;6.36;78.68
70708;SHT30;58277;47.316;18.908;2023-04-12T04:54:08;6.50;77.82
70708;SHT30;58277;47.316;18.908;2023-04-12T04:56:34;7.04;76.89
70708;SHT30;58277;47.316;18.908;2023-04-12T04:58:57;7.91;73.73
70708;SHT30;58277;47.316;18.908;2023-04-12T05:01:22;8.67;70.80
70708;SHT30;58277;47.316;18.908;2023-04-12T05:03:51;9.32;68.04
70708;SHT30;58277;47.316;18.908;2023-04-12T05:06:20;9.91;65.89
70708;SHT30;58277;47.316;18.908;2023-04-12T05:08:42;10.63;63.92
70708;SHT30;58277;47.316;18.908;2023-04-12T05:11:09;11.18;61.42
70708;SHT30;58277;47.316;18.908;2023-04-12T05:13:32;11.41;60.70
70708;SHT30;58277;47.316;18.908;2023-04-12T05:15:55;11.85;59.38
70708;SHT30;58277;47.316;18.908;2023-04-12T05:18:18;12.12;58.06
70708;SHT30;58277;47.316;18.908;2023-04-12T05:20:41;12.14;57.15
70708;SHT30;58277;47.316;18.908;2023-04-12T05:23:04;12.03;58.19
70708;SHT30;58277;47.316;18.908;2023-04-12T05:25:26;12.88;55.56
70708;SHT30;58277;47.316;18.908;2023-04-12T05:27:57;14.36;52.30
70708;SHT30;58277;47.316;18.908;2023-04-12T05:30:20;15.56;49.16
70708;SHT30;58277;47.316;18.908;2023-04-12T05:32:43;16.24;47.07
70708;SHT30;58277;47.316;18.908;2023-04-12T05:35:12;17.31;44.83
70708;SHT30;58277;47.316;18.908;2023-04-12T05:37:36;17.58;43.56
70708;SHT30;58277;47.316;18.908;2023-04-12T05:40:01;14.94;49.33
70708;SHT30;58277;47.316;18.908;2023-04-12T05:42:26;14.12;52.30
70708;SHT30;58277;47.316;18.908;2023-04-12T05:44:50;14.05;52.50
70708;SHT30;58277;47.316;18.908;2023-04-12T05:47:16;13.86;52.50
70708;SHT30;58277;47.316;18.908;2023-04-12T05:49:40;13.07;55.20
70708;SHT30;58277;47.316;18.908;2023-04-12T05:52:05;13.12;55.64
70708;SHT30;58277;47.316;18.908;2023-04-12T05:54:31;11.97;58.26
70708;SHT30;58277;47.316;18.908;2023-04-12T05:56:55;11.55;59.94
70708;SHT30;58277;47.316;18.908;2023-04-12T05:59:20;13.00;55.87
70708;SHT30;58277;47.316;18.908;2023-04-12T06:01:45;13.97;53.51
70708;SHT30;58277;47.316;18.908;2023-04-12T06:04:14;14.94;50.57
70708;SHT30;58277;47.316;18.908;2023-04-12T06:06:42;14.91;49.94
70708;SHT30;58277;47.316;18.908;2023-04-12T06:09:05;14.50;51.15
70708;SHT30;58277;47.316;18.908;2023-04-12T06:11:33;14.39;52.54
70708;SHT30;58277;47.316;18.908;2023-04-12T06:13:59;13.98;53.25
70708;SHT30;58277;47.316;18.908;2023-04-12T06:16:22;14.29;51.99
70708;SHT30;58277;47.316;18.908;2023-04-12T06:18:46;14.26;52.02
70708;SHT30;58277;47.316;18.908;2023-04-12T06:21:11;12.99;54.58
70708;SHT30;58277;47.316;18.908;2023-04-12T06:23:36;12.55;56.59
70708;SHT30;58277;47.316;18.908;2023-04-12T06:26:03;13.27;55.44
70708;SHT30;58277;47.316;18.908;2023-04-12T06:28:28;13.53;54.50
70708;SHT30;58277;47.316;18.908;2023-04-12T06:30:55;13.24;54.18
70708;SHT30;58277;47.316;18.908;2023-04-12T06:33:22;12.69;56.71
70708;SHT30;58277;47.316;18.908;2023-04-12T06:35:48;12.31;57.93
70708;SHT30;58277;47.316;18.908;2023-04-12T06:38:12;12.77;55.99
70708;SHT30;58277;47.316;18.908;2023-04-12T06:40:36;12.98;55.11
70708;SHT30;58277;47.316;18.908;2023-04-12T06:42:59;13.74;54.16
70708;SHT30;58277;47.316;18.908;2023-04-12T06:45:22;13.44;54.00
70708;SHT30;58277;47.316;18.908;2023-04-12T06:47:45;12.75;55.73
70708;SHT30;58277;47.316;18.908;2023-04-12T06:50:09;12.34;58.06
70708;SHT30;58277;47.316;18.908;2023-04-12T06:52:32;11.97;58.03
70708;SHT30;58277;47.316;18.908;2023-04-12T06:54:55;11.69;59.77
70708;SHT30;58277;47.316;18.908;2023-04-12T06:57:18;12.30;58.58
70708;SHT30;58277;47.316;18.908;2023-04-12T06:59:41;13.07;56.26
70708;SHT30;58277;47.316;18.908;2023-04-12T07:02:04;13.65;54.02
70708;SHT30;58277;47.316;18.908;2023-04-12T07:04:28;13.75;52.85
70708;SHT30;58277;47.316;18.908;2023-04-12T07:06:51;13.82;52.91
70708;SHT30;58277;47.316;18.908;2023-04-12T07:09:14;13.43;53.71
70708;SHT30;58277;47.316;18.908;2023-04-12T07:11:38;13.24;54.78
70708;SHT30;58277;47.316;18.908;2023-04-12T07:14:01;13.10;55.44
70708;SHT30;58277;47.316;18.908;2023-04-12T07:16:30;12.99;55.31
70708;SHT30;58277;47.316;18.908;2023-04-12T07:18:54;12.96;54.54
70708;SHT30;58277;47.316;18.908;2023-04-12T07:21:18;12.99;54.94
70708;SHT30;58277;47.316;18.908;2023-04-12T07:23:41;13.61;53.92
70708;SHT30;58277;47.316;18.908;2023-04-12T07:26:04;13.86;52.24
70708;SHT30;58277;47.316;18.908;2023-04-12T07:28:28;13.88;53.11
70708;SHT30;58277;47.316;18.908;2023-04-12T07:30:51;14.18;52.28
70708;SHT30;58277;47.316;18.908;2023-04-12T07:33:14;14.73;51.43
70708;SHT30;58277;47.316;18.908;2023-04-12T07:35:41;15.26;50.07
70708;SHT30;58277;47.316;18.908;2023-04-12T07:38:04;15.83;49.24
70708;SHT30;58277;47.316;18.908;2023-04-12T07:40:28;16.53;45.47
70708;SHT30;58277;47.316;18.908;2023-04-12T07:42:50;17.61;43.55
70708;SHT30;58277;47.316;18.908;2023-04-12T07:45:13;17.44;42.45
70708;SHT30;58277;47.316;18.908;2023-04-12T07:47:36;18.30;42.37
70708;SHT30;58277;47.316;18.908;2023-04-12T07:49:59;18.44;39.99
70708;SHT30;58277;47.316;18.908;2023-04-12T07:52:23;18.58;40.32
70708;SHT30;58277;47.316;18.908;2023-04-12T07:54:48;18.68;39.57
70708;SHT30;58277;47.316;18.908;2023-04-12T07:57:10;18.27;40.38
70708;SHT30;58277;47.316;18.908;2023-04-12T07:59:34;17.72;43.09
70708;SHT30;58277;47.316;18.908;2023-04-12T08:01:59;17.13;43.72
70708;SHT30;58277;47.316;18.908;2023-04-12T08:04:22;16.66;44.89
70708;SHT30;58277;47.316;18.908;2023-04-12T08:06:45;16.07;45.43
70708;SHT30;58277;47.316;18.908;2023-04-12T08:09:07;16.01;46.38
70708;SHT30;58277;47.316;18.908;2023-04-12T08:11:31;16.08;45.19
70708;SHT30;58277;47.316;18.908;2023-04-12T08:13:56;15.50;46.36
70708;SHT30;58277;47.316;18.908;2023-04-12T08:16:21;16.00;45.83
70708;SHT30;58277;47.316;18.908;2023-04-12T08:18:44;16.12;46.12
70708;SHT30;58277;47.316;18.908;2023-04-12T08:21:07;16.08;44.47
70708;SHT30;58277;47.316;18.908;2023-04-12T08:23:29;16.08;44.21
70708;SHT30;58277;47.316;18.908;2023-04-12T08:25:52;16.32;46.28
70708;SHT30;58277;47.316;18.908;2023-04-12T08:28:25;15.87;44.82
70708;SHT30;58277;47.316;18.908;2023-04-12T08:30:50;15.87;44.62
70708;SHT30;58277;47.316;18.908;2023-04-12T08:33:13;15.57;44.08
70708;SHT30;58277;47.316;18.908;2023-04-12T08:35:35;15.36;44.99
70708;SHT30;58277;47.316;18.908;2023-04-12T08:37:59;15.06;46.69
70708;SHT30;58277;47.316;18.908;2023-04-12T08:40:28;14.84;47.94
70708;SHT30;58277;47.316;18.908;2023-04-12T08:42:52;14.44;46.41
70708;SHT30;58277;47.316;18.908;2023-04-12T08:45:15;14.23;48.59
70708;SHT30;58277;47.316;18.908;2023-04-12T08:47:43;14.18;49.80
70708;SHT30;58277;47.316;18.908;2023-04-12T08:50:07;13.85;50.19
70708;SHT30;58277;47.316;18.908;2023-04-12T08:52:32;14.04;50.49
70708;SHT30;58277;47.316;18.908;2023-04-12T08:54:56;14.16;49.60
70708;SHT30;58277;47.316;18.908;2023-04-12T08:57:34;14.29;48.88
70708;SHT30;58277;47.316;18.908;2023-04-12T08:59:59;14.34;47.63
70708;SHT30;58277;47.316;18.908;2023-04-12T09:02:24;14.44;47.97
70708;SHT30;58277;47.316;18.908;2023-04-12T09:04:51;14.46;46.59
70708;SHT30;58277;47.316;18.908;2023-04-12T09:07:19;14.41;47.70
70708;SHT30;58277;47.316;18.908;2023-04-12T09:09:46;14.34;44.58
70708;SHT30;58277;47.316;18.908;2023-04-12T09:12:10;14.33;47.30
70708;SHT30;58277;47.316;18.908;2023-04-12T09:14:33;14.33;45.88
70708;SHT30;58277;47.316;18.908;2023-04-12T09:16:56;14.43;44.74
70708;SHT30;58277;47.316;18.908;2023-04-12T09:19:33;14.32;45.96
70708;SHT30;58277;47.316;18.908;2023-04-12T09:21:57;14.28;43.80
70708;SHT30;58277;47.316;18.908;2023-04-12T09:24:21;14.29;43.39
70708;SHT30;58277;47.316;18.908;2023-04-12T09:26:47;14.34;43.98
70708;SHT30;58277;47.316;18.908;2023-04-12T09:29:24;14.19;44.63
70708;SHT30;58277;47.316;18.908;2023-04-12T09:32:01;14.33;44.20
70708;SHT30;58277;47.316;18.908;2023-04-12T09:34:25;14.39;42.84
70708;SHT30;58277;47.316;18.908;2023-04-12T09:36:49;14.32;42.42
70708;SHT30;58277;47.316;18.908;2023-04-12T09:39:12;14.40;42.84
70708;SHT30;58277;47.316;18.908;2023-04-12T09:41:36;14.56;42.52
70708;SHT30;58277;47.316;18.908;2023-04-12T09:44:01;14.66;42.25
70708;SHT30;58277;47.316;18.908;2023-04-12T09:46:26;14.74;42.07
70708;SHT30;58277;47.316;18.908;2023-04-12T09:48:55;14.87;42.40
70708;SHT30;58277;47.316;18.908;2023-04-12T09:51:29;14.94;41.41
70708;SHT30;58277;47.316;18.908;2023-04-12T09:56:23;15.06;41.97
70708;SHT30;58277;47.316;18.908;2023-04-12T09:58:51;15.25;40.97
70708;SHT30;58277;47.316;18.908;2023-04-12T10:01:15;15.21;40.80
70708;SHT30;58277;47.316;18.908;2023-04-12T10:03:39;15.16;40.04
70708;SHT30;58277;47.316;18.908;2023-04-12T10:06:03;15.11;39.60
70708;SHT30;58277;47.316;18.908;2023-04-12T10:08:28;15.08;40.48
70708;SHT30;58277;47.316;18.908;2023-04-12T10:10:52;15.06;39.97
70708;SHT30;58277;47.316;18.908;2023-04-12T10:13:16;15.04;38.86
70708;SHT30;58277;47.316;18.908;2023-04-12T10:15:44;15.02;38.70
70708;SHT30;58277;47.316;18.908;2023-04-12T10:18:09;14.94;39.74
70708;SHT30;58277;47.316;18.908;2023-04-12T10:20:34;14.95;40.87
70708;SHT30;58277;47.316;18.908;2023-04-12T10:22:59;15.11;40.56
70708;SHT30;58277;47.316;18.908;2023-04-12T10:25:25;15.09;39.72
70708;SHT30;58277;47.316;18.908;2023-04-12T10:27:53;15.05;40.09
70708;SHT30;58277;47.316;18.908;2023-04-12T10:30:32;14.94;40.59
70708;SHT30;58277;47.316;18.908;2023-04-12T10:38:10;15.19;42.23
70708;SHT30;58277;47.316;18.908;2023-04-12T10:40:33;15.24;37.48
70708;SHT30;58277;47.316;18.908;2023-04-12T10:45:46;15.26;38.93
70708;SHT30;58277;47.316;18.908;2023-04-12T10:51:22;15.36;40.33
70708;SHT30;58277;47.316;18.908;2023-04-12T10:56:40;15.33;40.05
70708;SHT30;58277;47.316;18.908;2023-04-12T10:59:09;15.42;39.70
70708;SHT30;58277;47.316;18.908;2023-04-12T11:01:35;15.39;39.95
70708;SHT30;58277;47.316;18.908;2023-04-12T11:04:18;15.35;40.02
70708;SHT30;58277;47.316;18.908;2023-04-12T11:06:58;15.38;39.17
70708;SHT30;58277;47.316;18.908;2023-04-12T11:09:48;15.47;38.62
70708;SHT30;58277;47.316;18.908;2023-04-12T11:12:34;15.56;37.86
70708;SHT30;58277;47.316;18.908;2023-04-12T11:14:59;15.64;39.38
70708;SHT30;58277;47.316;18.908;2023-04-12T11:17:36;15.66;39.98
70708;SHT30;58277;47.316;18.908;2023-04-12T11:20:00;15.60;38.72
70708;SHT30;58277;47.316;18.908;2023-04-12T11:22:25;15.52;38.24
70708;SHT30;58277;47.316;18.908;2023-04-12T11:24:51;15.50;38.81
70708;SHT30;58277;47.316;18.908;2023-04-12T11:27:15;15.54;37.88
70708;SHT30;58277;47.316;18.908;2023-04-12T11:29:38;15.57;36.72
70708;SHT30;58277;47.316;18.908;2023-04-12T11:32:02;15.53;40.21
70708;SHT30;58277;47.316;18.908;2023-04-12T11:34:49;15.56;38.51
70708;SHT30;58277;47.316;18.908;2023-04-12T11:37:13;15.59;38.91
70708;SHT30;58277;47.316;18.908;2023-04-12T11:39:41;15.69;38.64
70708;SHT30;58277;47.316;18.908;2023-04-12T11:42:05;15.76;37.62
70708;SHT30;58277;47.316;18.908;2023-04-12T11:44:32;15.80;37.47
70708;SHT30;58277;47.316;18.908;2023-04-12T11:47:18;15.77;38.38
70708;SHT30;58277;47.316;18.908;2023-04-12T11:49:49;15.84;39.14
70708;SHT30;58277;47.316;18.908;2023-04-12T11:52:13;15.84;36.95
70708;SHT30;58277;47.316;18.908;2023-04-12T11:54:36;15.74;36.83
70708;SHT30;58277;47.316;18.908;2023-04-12T11:56:59;15.84;36.81
70708;SHT30;58277;47.316;18.908;2023-04-12T11:59:32;15.79;35.95
70708;SHT30;58277;47.316;18.908;2023-04-12T12:01:56;15.69;37.47
70708;SHT30;58277;47.316;18.908;2023-04-12T12:04:19;15.77;37.28
70708;SHT30;58277;47.316;18.908;2023-04-12T12:06:43;15.93;36.14
70708;SHT30;58277;47.316;18.908;2023-04-12T12:09:06;15.89;34.80
70708;SHT30;58277;47.316;18.908;2023-04-12T12:11:29;15.80;35.90
70708;SHT30;58277;47.316;18.908;2023-04-12T12:13:55;15.63;36.60
70708;SHT30;58277;47.316;18.908;2023-04-12T12:16:26;15.67;34.98
70708;SHT30;58277;47.316;18.908;2023-04-12T12:18:50;15.83;36.63
70708;SHT30;58277;47.316;18.908;2023-04-12T12:21:14;15.83;36.12
70708;SHT30;58277;47.316;18.908;2023-04-12T12:23:38;15.84;36.12
70708;SHT30;58277;47.316;18.908;2023-04-12T12:26:03;15.98;36.05
70708;SHT30;58277;47.316;18.908;2023-04-12T12:28:40;15.73;35.24
70708;SHT30;58277;47.316;18.908;2023-04-12T12:31:08;15.77;35.44
70708;SHT30;58277;47.316;18.908;2023-04-12T12:33:38;15.74;34.99
70708;SHT30;58277;47.316;18.908;2023-04-12T12:36:08;15.84;34.16
70708;SHT30;58277;47.316;18.908;2023-04-12T12:38:38;16.05;34.44
70708;SHT30;58277;47.316;18.908;2023-04-12T12:41:27;16.01;34.38
70708;SHT30;58277;47.316;18.908;2023-04-12T12:43:51;15.96;35.68
70708;SHT30;58277;47.316;18.908;2023-04-12T12:46:14;15.93;34.56
70708;SHT30;58277;47.316;18.908;2023-04-12T12:48:42;15.87;35.81
70708;SHT30;58277;47.316;18.908;2023-04-12T12:51:05;15.86;35.34
70708;SHT30;58277;47.316;18.908;2023-04-12T12:53:28;15.81;35.67
70708;SHT30;58277;47.316;18.908;2023-04-12T12:55:50;15.76;35.19
70708;SHT30;58277;47.316;18.908;2023-04-12T12:58:13;15.74;34.72
70708;SHT30;58277;47.316;18.908;2023-04-12T13:00:36;15.83;34.91
70708;SHT30;58277;47.316;18.908;2023-04-12T13:02:59;15.89;34.66
70708;SHT30;58277;47.316;18.908;2023-04-12T13:05:25;16.05;34.66
70708;SHT30;58277;47.316;18.908;2023-04-12T13:07:48;16.10;35.86
70708;SHT30;58277;47.316;18.908;2023-04-12T13:10:10;16.07;35.77
70708;SHT30;58277;47.316;18.908;2023-04-12T13:12:34;16.07;34.32
70708;SHT30;58277;47.316;18.908;2023-04-12T13:14:57;16.14;33.77
70708;SHT30;58277;47.316;18.908;2023-04-12T13:17:42;15.93;33.20
70708;SHT30;58277;47.316;18.908;2023-04-12T13:20:05;16.01;32.07
70708;SHT30;58277;47.316;18.908;2023-04-12T13:22:30;16.19;30.52
70708;SHT30;58277;47.316;18.908;2023-04-12T13:24:52;16.31;31.78
70708;SHT30;58277;47.316;18.908;2023-04-12T13:27:16;16.39;32.24
70708;SHT30;58277;47.316;18.908;2023-04-12T13:29:39;16.36;31.06
70708;SHT30;58277;47.316;18.908;2023-04-12T13:32:02;16.51;31.13
70708;SHT30;58277;47.316;18.908;2023-04-12T13:34:25;16.42;31.19
70708;SHT30;58277;47.316;18.908;2023-04-12T13:36:48;16.67;32.87
70708;SHT30;58277;47.316;18.908;2023-04-12T13:39:11;16.56;33.52
70708;SHT30;58277;47.316;18.908;2023-04-12T13:41:34;16.58;32.05
70708;SHT30;58277;47.316;18.908;2023-04-12T13:43:57;16.46;31.47
70708;SHT30;58277;47.316;18.908;2023-04-12T13:46:20;16.49;31.75
70708;SHT30;58277;47.316;18.908;2023-04-12T13:48:43;16.46;31.56
70708;SHT30;58277;47.316;18.908;2023-04-12T13:51:06;16.60;30.95
70708;SHT30;58277;47.316;18.908;2023-04-12T13:53:29;16.55;30.93
70708;SHT30;58277;47.316;18.908;2023-04-12T13:55:52;16.62;30.27
70708;SHT30;58277;47.316;18.908;2023-04-12T13:58:15;16.49;31.32
70708;SHT30;58277;47.316;18.908;2023-04-12T14:00:37;16.41;29.18
70708;SHT30;58277;47.316;18.908;2023-04-12T14:03:00;16.58;29.81
70708;SHT30;58277;47.316;18.908;2023-04-12T14:05:24;16.51;30.07
70708;SHT30;58277;47.316;18.908;2023-04-12T14:07:46;16.51;30.66
70708;SHT30;58277;47.316;18.908;2023-04-12T14:10:12;16.49;29.72
70708;SHT30;58277;47.316;18.908;2023-04-12T14:12:34;16.59;29.18
70708;SHT30;58277;47.316;18.908;2023-04-12T14:14:57;16.48;27.80
70708;SHT30;58277;47.316;18.908;2023-04-12T14:17:20;16.49;27.60
70708;SHT30;58277;47.316;18.908;2023-04-12T14:19:43;16.49;27.71
70708;SHT30;58277;47.316;18.908;2023-04-12T14:22:06;16.41;27.94
70708;SHT30;58277;47.316;18.908;2023-04-12T14:24:29;16.29;26.48
70708;SHT30;58277;47.316;18.908;2023-04-12T14:26:53;16.26;29.61
70708;SHT30;58277;47.316;18.908;2023-04-12T14:29:16;16.26;28.79
70708;SHT30;58277;47.316;18.908;2023-04-12T14:31:39;16.18;29.03
70708;SHT30;58277;47.316;18.908;2023-04-12T14:34:02;16.18;29.87
70708;SHT30;58277;47.316;18.908;2023-04-12T14:36:25;16.24;29.33
70708;SHT30;58277;47.316;18.908;2023-04-12T14:38:49;16.19;27.99
70708;SHT30;58277;47.316;18.908;2023-04-12T14:41:11;16.28;27.49
70708;SHT30;58277;47.316;18.908;2023-04-12T14:43:35;16.36;28.03
70708;SHT30;58277;47.316;18.908;2023-04-12T14:45:58;16.28;27.21
70708;SHT30;58277;47.316;18.908;2023-04-12T14:48:21;16.12;28.84
70708;SHT30;58277;47.316;18.908;2023-04-12T14:50:44;16.12;26.87
70708;SHT30;58277;47.316;18.908;2023-04-12T14:53:07;16.28;28.42
70708;SHT30;58277;47.316;18.908;2023-04-12T14:55:31;16.01;30.04
70708;SHT30;58277;47.316;18.908;2023-04-12T14:57:54;16.18;29.27
70708;SHT30;58277;47.316;18.908;2023-04-12T15:00:17;16.04;29.01
70708;SHT30;58277;47.316;18.908;2023-04-12T15:02:41;16.18;27.69
70708;SHT30;58277;47.316;18.908;2023-04-12T15:05:06;16.17;27.60
70708;SHT30;58277;47.316;18.908;2023-04-12T15:07:30;16.07;28.28
70708;SHT30;58277;47.316;18.908;2023-04-12T15:09:53;16.00;29.21
70708;SHT30;58277;47.316;18.908;2023-04-12T15:12:16;16.02;27.49
70708;SHT30;58277;47.316;18.908;2023-04-12T15:14:39;16.00;28.40
70708;SHT30;58277;47.316;18.908;2023-04-12T15:17:02;15.83;27.69
70708;SHT30;58277;47.316;18.908;2023-04-12T15:19:25;15.87;27.27
70708;SHT30;58277;47.316;18.908;2023-04-12T15:21:52;15.86;27.72
70708;SHT30;58277;47.316;18.908;2023-04-12T15:24:17;15.83;28.07
70708;SHT30;58277;47.316;18.908;2023-04-12T15:26:40;15.76;28.17
70708;SHT30;58277;47.316;18.908;2023-04-12T15:29:03;15.81;28.01
70708;SHT30;58277;47.316;18.908;2023-04-12T15:31:26;15.79;28.05
70708;SHT30;58277;47.316;18.908;2023-04-12T15:33:49;15.79;28.66